createdAt,value
2022-12-17T00:00:23.193Z,97517.38
2022-12-17T00:03:15.634Z,97495.56
2022-12-17T00:06:00.858Z,97502.28
2022-12-17T00:08:45.910Z,97524.13
2022-12-17T00:11:30.870Z,97529.72
2022-12-17T00:14:15.699Z,97513.88
2022-12-17T00:17:01.542Z,97507.00
2022-12-17T00:19:47.487Z,97522.63
2022-12-17T00:22:34.419Z,97526.44
2022-12-17T00:25:19.318Z,97483.22
2022-12-17T00:28:04.120Z,97476.53
2022-12-17T00:30:48.990Z,97464.53
2022-12-17T00:33:36.412Z,97486.03
2022-12-17T00:36:21.841Z,97487.88
2022-12-17T00:39:06.603Z,97494.84
2022-12-17T00:41:51.442Z,97503.91
2022-12-17T00:44:38.166Z,97510.88
2022-12-17T00:47:23.066Z,97511.44
2022-12-17T00:50:08.388Z,97508.34
2022-12-17T00:52:53.298Z,97504.31
2022-12-17T00:55:41.533Z,97509.34
2022-12-17T00:58:26.397Z,97499.63
2022-12-17T01:01:16.644Z,97495.06
2022-12-17T01:04:01.631Z,97490.44
2022-12-17T01:06:46.506Z,97485.38
2022-12-17T01:09:31.478Z,97464.38
2022-12-17T01:12:16.266Z,97458.34
2022-12-17T01:15:04.031Z,97431.44
2022-12-17T01:17:50.015Z,97440.38
2022-12-17T01:20:34.987Z,97446.22
2022-12-17T01:23:20.038Z,97444.13
2022-12-17T01:26:11.523Z,97429.66
2022-12-17T01:28:56.340Z,97428.06
2022-12-17T01:31:48.999Z,97433.75
2022-12-17T01:34:33.952Z,97418.88
2022-12-17T01:37:18.769Z,97409.38
2022-12-17T01:40:03.720Z,97407.44
2022-12-17T01:43:01.866Z,97388.44
2022-12-17T01:45:55.315Z,97370.09
2022-12-17T01:48:42.497Z,97325.00
2022-12-17T01:51:27.950Z,97298.81
2022-12-17T01:54:13.363Z,97300.41
2022-12-17T01:57:02.697Z,97279.09
2022-12-17T01:59:53.033Z,97308.09
2022-12-17T02:02:38.150Z,97319.41
2022-12-17T02:05:23.295Z,97300.75
2022-12-17T02:08:28.462Z,97284.00
2022-12-17T02:11:22.889Z,97259.38
2022-12-17T02:14:22.633Z,97251.78
2022-12-17T02:17:09.950Z,97243.56
2022-12-17T02:19:58.536Z,97239.53
2022-12-17T02:22:52.998Z,97225.38
2022-12-17T02:25:45.310Z,97206.72
2022-12-17T02:28:30.189Z,97211.63
2022-12-17T02:31:16.161Z,97203.56
2022-12-17T02:34:01.314Z,97193.22
2022-12-17T02:36:46.297Z,97191.03
2022-12-17T02:39:31.133Z,97178.50
2022-12-17T02:42:16.627Z,97142.84
2022-12-17T02:45:01.892Z,97112.34
2022-12-17T02:47:47.210Z,97094.44
2022-12-17T02:50:32.610Z,97095.78
2022-12-17T02:53:18.479Z,97099.16
2022-12-17T02:56:03.822Z,97087.09
2022-12-17T02:58:48.615Z,97091.31
2022-12-17T03:01:34.874Z,97098.47
2022-12-17T03:04:39.811Z,97088.19
2022-12-17T03:07:26.566Z,97084.50
2022-12-17T03:10:11.289Z,97074.19
2022-12-17T03:12:56.239Z,97064.97
2022-12-17T03:15:41.048Z,97068.44
2022-12-17T03:18:25.936Z,97079.81
2022-12-17T03:21:11.906Z,97082.44
2022-12-17T03:23:57.435Z,97091.97
2022-12-17T03:26:42.317Z,97089.06
2022-12-17T03:29:27.142Z,97085.63
2022-12-17T03:32:12.039Z,97064.53
2022-12-17T03:34:56.857Z,97067.16
2022-12-17T03:37:41.794Z,97070.59
2022-12-17T03:40:27.110Z,97070.31
2022-12-17T03:43:11.972Z,97067.69
2022-12-17T03:46:10.764Z,97070.88
2022-12-17T03:48:55.569Z,97053.41
2022-12-17T03:51:40.363Z,97048.66
2022-12-17T03:54:25.306Z,97047.09
2022-12-17T03:57:15.798Z,97042.31
2022-12-17T04:00:01.002Z,97035.97
2022-12-17T04:02:46.104Z,97035.19
2022-12-17T04:05:31.257Z,97026.44
2022-12-17T04:08:16.078Z,97021.66
2022-12-17T04:11:01.097Z,97039.13
2022-12-17T04:13:45.990Z,97047.31
2022-12-17T04:16:31.073Z,97042.28
2022-12-17T04:19:17.107Z,97040.69
2022-12-17T04:22:02.163Z,97058.16
2022-12-17T04:24:47.018Z,97058.44
2022-12-17T04:27:31.937Z,97051.31
2022-12-17T04:30:16.858Z,97058.69
2022-12-17T04:33:01.633Z,97069.78
2022-12-17T04:35:48.363Z,97067.19
2022-12-17T04:38:33.205Z,97051.31
2022-12-17T04:41:18.073Z,97067.97
2022-12-17T04:44:03.628Z,97052.38
2022-12-17T04:46:48.913Z,97041.25
2022-12-17T04:49:33.871Z,97019.00
2022-12-17T04:52:18.781Z,97005.25
2022-12-17T04:55:03.718Z,96990.41
2022-12-17T04:57:48.527Z,96986.16
2022-12-17T05:00:33.606Z,96980.31
2022-12-17T05:03:25.084Z,96985.09
2022-12-17T05:06:10.302Z,96994.63
2022-12-17T05:08:55.143Z,96999.66
2022-12-17T05:11:40.086Z,97004.69
2022-12-17T05:14:24.991Z,96998.84
2022-12-17T05:17:13.693Z,96978.47
2022-12-17T05:19:58.549Z,96963.84
2022-12-17T05:22:43.642Z,96952.19
2022-12-17T05:25:28.526Z,96927.25
2022-12-17T05:28:13.421Z,96924.56
2022-12-17T05:30:58.401Z,96921.63
2022-12-17T05:33:43.504Z,96919.75
2022-12-17T05:36:28.315Z,96904.31
2022-12-17T05:39:13.099Z,96909.63
2022-12-17T05:41:58.003Z,96905.44
2022-12-17T05:44:42.878Z,96909.34
2022-12-17T05:47:27.886Z,96910.66
2022-12-17T05:50:12.728Z,96900.03
2022-12-17T05:52:57.445Z,96885.13
2022-12-17T05:55:42.331Z,96882.97
2022-12-17T05:58:30.235Z,96889.31
2022-12-17T06:01:21.253Z,96844.25
2022-12-17T06:04:06.632Z,96818.25
2022-12-17T06:06:51.727Z,96820.91
2022-12-17T06:09:37.410Z,96813.47
2022-12-17T06:12:22.465Z,96808.63
2022-12-17T06:15:07.341Z,96798.25
2022-12-17T06:18:00.849Z,96799.09
2022-12-17T06:20:45.805Z,96799.19
2022-12-17T06:23:30.593Z,96807.69
2022-12-17T06:26:15.463Z,96802.81
2022-12-17T06:29:01.305Z,96800.06
2022-12-17T06:31:46.667Z,96800.75
2022-12-17T06:34:31.965Z,96803.06
2022-12-17T06:37:16.761Z,96819.72
2022-12-17T06:40:01.667Z,96829.19
2022-12-17T06:42:46.728Z,96807.88
2022-12-17T06:45:31.593Z,96816.75
2022-12-17T06:48:20.082Z,96803.78
2022-12-17T06:51:04.973Z,96820.38
2022-12-17T06:53:49.920Z,96816.44
2022-12-17T06:56:34.836Z,96775.34
2022-12-17T06:59:19.865Z,96775.69
2022-12-17T07:02:04.916Z,96784.28
2022-12-17T07:04:50.026Z,96778.69
2022-12-17T07:07:35.075Z,96768.09
2022-12-17T07:10:20.094Z,96764.66
2022-12-17T07:13:05.013Z,96763.06
2022-12-17T07:15:49.963Z,96751.91
2022-12-17T07:18:36.074Z,96743.44
2022-12-17T07:21:22.816Z,96739.69
2022-12-17T07:24:07.597Z,96739.19
2022-12-17T07:26:52.550Z,96726.94
2022-12-17T07:29:37.371Z,96729.88
2022-12-17T07:32:22.207Z,96732.81
2022-12-17T07:35:07.043Z,96729.59
2022-12-17T07:37:51.942Z,96721.09
2022-12-17T07:40:36.815Z,96718.91
2022-12-17T07:43:28.194Z,96715.69
2022-12-17T07:46:13.112Z,96697.91
2022-12-17T07:48:58.377Z,96697.34
2022-12-17T07:51:43.131Z,96688.53
2022-12-17T07:54:28.113Z,96689.31
2022-12-17T07:57:12.990Z,96683.72
2022-12-17T07:59:57.985Z,96685.03
2022-12-17T08:02:43.040Z,96679.13
2022-12-17T08:05:28.294Z,96677.97
2022-12-17T08:08:13.614Z,96660.41
2022-12-17T08:10:58.319Z,96651.47
2022-12-17T08:13:43.210Z,96652.47
2022-12-17T08:16:28.133Z,96657.44
2022-12-17T08:19:13.997Z,96647.53
2022-12-17T08:21:58.857Z,96639.97
2022-12-17T08:24:43.754Z,96644.69
2022-12-17T08:27:28.778Z,96632.91
2022-12-17T08:30:13.699Z,96630.16
2022-12-17T08:32:58.560Z,96616.78
2022-12-17T08:35:43.345Z,96618.28
2022-12-17T08:38:28.415Z,96612.88
2022-12-17T08:41:13.149Z,96609.94
2022-12-17T08:43:58.123Z,96612.75
2022-12-17T08:46:43.141Z,96600.09
2022-12-17T08:49:28.230Z,96608.94
2022-12-17T08:52:13.161Z,96619.34
2022-12-17T08:54:58.049Z,96622.69
2022-12-17T08:57:42.987Z,96615.03
2022-12-17T09:00:28.378Z,96619.28
2022-12-17T09:03:17.001Z,96628.78
2022-12-17T09:06:02.306Z,96622.69
2022-12-17T09:08:47.701Z,96622.69
2022-12-17T09:11:33.240Z,96617.38
2022-12-17T09:14:18.172Z,96624.25
2022-12-17T09:17:04.858Z,96615.22
2022-12-17T09:19:50.045Z,96617.88
2022-12-17T09:22:34.828Z,96617.88
2022-12-17T09:25:19.799Z,96618.84
2022-12-17T09:28:21.424Z,96616.19
2022-12-17T09:31:06.734Z,96613.25
2022-12-17T09:33:51.706Z,96613.75
2022-12-17T09:36:36.786Z,96618.56
2022-12-17T09:39:22.074Z,96613.47
2022-12-17T09:42:13.071Z,96605.78
2022-12-17T09:45:02.948Z,96605.19
2022-12-17T09:47:50.929Z,96591.63
2022-12-17T09:50:35.871Z,96594.78
2022-12-17T09:53:22.274Z,96588.84
2022-12-17T09:56:09.138Z,96590.44
2022-12-17T09:58:55.717Z,96590.94
2022-12-17T10:01:45.851Z,96593.59
2022-12-17T10:04:48.241Z,96587.47
2022-12-17T10:07:36.115Z,96584.03
2022-12-17T10:10:29.116Z,96582.06
2022-12-17T10:13:14.261Z,96573.81
2022-12-17T10:16:00.740Z,96579.13
2022-12-17T10:18:47.543Z,96578.84
2022-12-17T10:21:32.389Z,96578.53
2022-12-17T10:24:23.999Z,96579.03
2022-12-17T10:27:09.407Z,96575.28
2022-12-17T10:29:54.485Z,96573.09
2022-12-17T10:32:42.947Z,96573.50
2022-12-17T10:35:32.271Z,96560.13
2022-12-17T10:38:19.191Z,96565.78
2022-12-17T10:41:04.666Z,96556.16
2022-12-17T10:43:51.126Z,96563.03
2022-12-17T10:46:42.490Z,96577.81
2022-12-17T10:49:32.342Z,96572.25
2022-12-17T10:52:23.399Z,96576.50
2022-12-17T10:55:18.877Z,96584.91
2022-12-17T10:58:04.254Z,96578.63
2022-12-17T11:00:51.614Z,96575.44
2022-12-17T11:03:45.709Z,96574.66
2022-12-17T11:06:49.343Z,96583.75
2022-12-17T11:09:37.685Z,96580.78
2022-12-17T11:12:30.291Z,96570.16
2022-12-17T11:15:17.881Z,96568.59
2022-12-17T11:18:11.110Z,96560.91
2022-12-17T11:21:15.517Z,96555.59
2022-12-17T11:24:02.974Z,96545.75
2022-12-17T11:26:51.007Z,96535.13
2022-12-17T11:29:36.029Z,96540.44
2022-12-17T11:32:20.863Z,96536.19
2022-12-17T11:35:20.984Z,96528.22
2022-12-17T11:38:25.765Z,96526.84
2022-12-17T11:41:13.705Z,96520.75
2022-12-17T11:44:16.982Z,96522.31
2022-12-17T11:47:13.076Z,96520.25
2022-12-17T11:50:02.858Z,96516.00
2022-12-17T11:52:54.269Z,96512.28
2022-12-17T11:55:51.357Z,96506.97
2022-12-17T11:58:56.377Z,96512.28
2022-12-17T12:01:41.519Z,96508.84
2022-12-17T12:04:45.056Z,96508.25
2022-12-17T12:07:45.137Z,96491.38
2022-12-17T12:10:35.307Z,96487.63
2022-12-17T12:13:33.925Z,96496.09
2022-12-17T12:16:43.390Z,96493.91
2022-12-17T12:19:35.883Z,96477.38
2022-12-17T12:22:30.359Z,96485.84
2022-12-17T12:25:18.832Z,96481.50
2022-12-17T12:28:18.414Z,96478.69
2022-12-17T12:31:18.898Z,96469.53
2022-12-17T12:34:15.815Z,96480.06
2022-12-17T12:37:03.393Z,96480.44
2022-12-17T12:39:55.546Z,96482.94
2022-12-17T12:42:48.526Z,96487.06
2022-12-17T12:45:39.560Z,96480.25
2022-12-17T12:48:30.150Z,96476.53
2022-12-17T12:51:14.847Z,96497.09
2022-12-17T12:54:01.545Z,96505.47
2022-12-17T12:56:53.611Z,96502.41
2022-12-17T12:59:49.649Z,96486.66
2022-12-17T13:02:49.668Z,96489.84
2022-12-17T13:05:34.836Z,96494.31
2022-12-17T13:08:05.958Z,96502.31
2022-12-17T13:10:32.986Z,96497.78
2022-12-17T13:13:06.417Z,96505.47
2022-12-17T13:15:39.028Z,96503.88
2022-12-17T13:18:26.606Z,96495.91
2022-12-17T13:20:57.594Z,96491.66
2022-12-17T13:23:29.199Z,96488.53
2022-12-17T13:26:11.058Z,96477.88
2022-12-17T13:28:38.493Z,96469.31
2022-12-17T13:31:06.470Z,96469.00
2022-12-17T13:33:49.642Z,96464.47
2022-12-17T13:36:21.982Z,96457.28
2022-12-17T13:39:00.834Z,96453.84
2022-12-17T13:41:34.093Z,96448.97
2022-12-17T13:44:24.119Z,96445.72
2022-12-17T13:46:52.008Z,96449.66
2022-12-17T13:49:20.025Z,96438.41
2022-12-17T13:51:47.031Z,96432.78
2022-12-17T13:54:20.282Z,96431.09
2022-12-17T13:56:46.803Z,96434.22
2022-12-17T13:59:21.138Z,96428.91
2022-12-17T14:01:49.088Z,96425.00
2022-12-17T14:04:33.700Z,96420.34
2022-12-17T14:07:03.302Z,96425.25
2022-12-17T14:09:39.038Z,96424.00
2022-12-17T14:12:24.778Z,96409.47
2022-12-17T14:14:55.954Z,96408.56
2022-12-17T14:17:25.412Z,96416.38
2022-12-17T14:19:56.773Z,96412.03
2022-12-17T14:22:29.172Z,96414.38
2022-12-17T14:24:55.703Z,96407.84
2022-12-17T14:27:24.758Z,96410.38
2022-12-17T14:29:51.290Z,96403.97
2022-12-17T14:32:43.943Z,96406.66
2022-12-17T14:35:30.614Z,96420.25
2022-12-17T14:37:57.635Z,96425.03
2022-12-17T14:40:25.599Z,96405.31
2022-12-17T14:42:57.485Z,96393.91
2022-12-17T14:45:25.753Z,96375.63
2022-12-17T14:47:58.070Z,96382.47
2022-12-17T14:50:32.336Z,96368.06
2022-12-17T14:53:00.247Z,96361.50
2022-12-17T14:55:26.828Z,96337.06
2022-12-17T14:57:54.941Z,96332.22
2022-12-17T15:00:21.893Z,96326.13
2022-12-17T15:02:52.547Z,96323.91
2022-12-17T15:05:19.254Z,96307.91
2022-12-17T15:07:45.906Z,96296.66
2022-12-17T15:10:14.505Z,96292.09
2022-12-17T15:12:42.170Z,96285.38
2022-12-17T15:15:11.954Z,96286.94
2022-12-17T15:17:38.419Z,96278.63
2022-12-17T15:20:05.107Z,96277.22
2022-12-17T15:22:32.174Z,96265.94
2022-12-17T15:24:58.631Z,96266.41
2022-12-17T15:27:26.774Z,96252.44
2022-12-17T15:29:53.202Z,96252.91
2022-12-17T15:32:20.862Z,96254.94
2022-12-17T15:34:47.527Z,96246.59
2022-12-17T15:37:14.265Z,96252.44
2022-12-17T15:39:40.955Z,96245.53
2022-12-17T15:42:27.686Z,96240.22
2022-12-17T15:44:54.201Z,96231.13
2022-12-17T15:47:20.635Z,96234.22
2022-12-17T15:49:47.138Z,96225.13
2022-12-17T15:52:16.335Z,96229.69
2022-12-17T15:54:43.001Z,96220.25
2022-12-17T15:57:13.971Z,96224.50
2022-12-17T15:59:43.659Z,96210.53
2022-12-17T16:02:10.772Z,96205.78
2022-12-17T16:04:39.617Z,96208.97
2022-12-17T16:07:06.199Z,96213.50
2022-12-17T16:09:32.671Z,96210.38
2022-12-17T16:11:59.319Z,96218.38
2022-12-17T16:14:26.244Z,96209.28
2022-12-17T16:16:54.584Z,96205.50
2022-12-17T16:19:21.087Z,96202.53
2022-12-17T16:21:47.511Z,96211.44
2022-12-17T16:24:14.043Z,96204.34
2022-12-17T16:26:40.502Z,96198.38
2022-12-17T16:29:07.114Z,96200.09
2022-12-17T16:31:33.749Z,96201.03
2022-12-17T16:34:00.254Z,96200.69
2022-12-17T16:36:26.876Z,96206.97
2022-12-17T16:38:53.905Z,96202.56
2022-12-17T16:41:21.138Z,96200.34
2022-12-17T16:43:48.132Z,96197.84
2022-12-17T16:46:23.402Z,96203.31
2022-12-17T16:48:49.889Z,96198.69
2022-12-17T16:51:27.912Z,96197.56
2022-12-17T16:53:55.314Z,96202.91
2022-12-17T16:56:23.588Z,96198.03
2022-12-17T16:58:50.704Z,96205.38
2022-12-17T17:01:20.831Z,96207.53
2022-12-17T17:03:49.830Z,96205.00
2022-12-17T17:06:16.909Z,96195.72
2022-12-17T17:08:43.497Z,96210.50
2022-12-17T17:11:14.086Z,96217.91
2022-12-17T17:13:40.944Z,96227.00
2022-12-17T17:16:07.949Z,96221.94
2022-12-17T17:18:37.159Z,96236.91
2022-12-17T17:21:18.839Z,96251.44
2022-12-17T17:23:46.270Z,96247.97
2022-12-17T17:26:13.656Z,96249.06
2022-12-17T17:28:41.138Z,96233.63
2022-12-17T17:31:09.027Z,96238.31
2022-12-17T17:33:36.411Z,96238.22
2022-12-17T17:36:11.838Z,96242.63
2022-12-17T17:38:39.253Z,96242.19
2022-12-17T17:41:07.097Z,96230.41
2022-12-17T17:43:33.575Z,96227.72
2022-12-17T17:46:06.194Z,96230.88
2022-12-17T17:48:33.637Z,96222.53
2022-12-17T17:51:01.329Z,96213.38
2022-12-17T17:53:27.868Z,96198.38
2022-12-17T17:55:54.378Z,96213.97
2022-12-17T17:58:20.893Z,96213.84
2022-12-17T18:00:47.341Z,96212.91
2022-12-17T18:03:13.952Z,96225.34
2022-12-17T18:05:42.354Z,96226.94
2022-12-17T18:08:09.299Z,96213.28
2022-12-17T18:10:35.980Z,96213.97
2022-12-17T18:13:20.875Z,96217.34
2022-12-17T18:15:47.434Z,96216.09
2022-12-17T18:18:14.781Z,96216.72
2022-12-17T18:20:42.566Z,96215.56
2022-12-17T18:23:09.074Z,96213.84
2022-12-17T18:25:37.758Z,96208.63
2022-12-17T18:28:04.504Z,96206.13
2022-12-17T18:30:31.083Z,96196.44
2022-12-17T18:32:57.725Z,96195.78
2022-12-17T18:35:24.279Z,96198.00
2022-12-17T18:37:50.865Z,96195.31
2022-12-17T18:40:17.439Z,96197.84
2022-12-17T18:43:02.455Z,96197.59
2022-12-17T18:45:28.981Z,96205.06
2022-12-17T18:47:55.514Z,96201.91
2022-12-17T18:50:21.970Z,96200.97
2022-12-17T18:52:48.506Z,96205.81
2022-12-17T18:55:15.037Z,96204.50
2022-12-17T18:57:41.471Z,96188.75
2022-12-17T19:00:08.570Z,96189.03
2022-12-17T19:02:35.185Z,96170.81
2022-12-17T19:05:02.096Z,96165.28
2022-12-17T19:07:28.583Z,96171.50
2022-12-17T19:09:55.066Z,96168.19
2022-12-17T19:12:21.549Z,96175.56
2022-12-17T19:14:48.005Z,96177.38
2022-12-17T19:17:15.239Z,96175.72
2022-12-17T19:19:42.345Z,96177.84
2022-12-17T19:22:08.843Z,96172.31
2022-12-17T19:24:35.281Z,96171.66
2022-12-17T19:27:01.737Z,96172.75
2022-12-17T19:29:28.163Z,96180.59
2022-12-17T19:31:54.779Z,96182.59
2022-12-17T19:34:21.338Z,96182.06
2022-12-17T19:36:47.968Z,96159.81
2022-12-17T19:39:15.598Z,96166.50
2022-12-17T19:41:42.102Z,96160.91
2022-12-17T19:44:11.091Z,96144.47
2022-12-17T19:46:37.831Z,96137.25
2022-12-17T19:49:04.733Z,96133.78
2022-12-17T19:51:31.963Z,96124.84
2022-12-17T19:54:03.223Z,96124.19
2022-12-17T19:56:34.588Z,96116.38
2022-12-17T19:59:02.178Z,96106.25
2022-12-17T20:01:30.122Z,96084.53
2022-12-17T20:03:56.800Z,96091.22
2022-12-17T20:06:25.066Z,96080.06
2022-12-17T20:08:51.647Z,96078.97
2022-12-17T20:11:34.079Z,96070.84
2022-12-17T20:14:23.694Z,96070.38
2022-12-17T20:16:52.646Z,96062.91
2022-12-17T20:19:20.883Z,96082.00
2022-12-17T20:21:47.843Z,96063.59
2022-12-17T20:24:14.610Z,96074.72
2022-12-17T20:26:41.917Z,96085.09
2022-12-17T20:29:09.041Z,96077.84
2022-12-17T20:31:36.169Z,96080.97
2022-12-17T20:34:03.914Z,96071.81
2022-12-17T20:36:30.694Z,96071.16
2022-12-17T20:38:57.448Z,96072.72
2022-12-17T20:41:25.216Z,96072.72
2022-12-17T20:43:52.211Z,96067.78
2022-12-17T20:46:19.325Z,96057.19
2022-12-17T20:48:45.993Z,96064.00
2022-12-17T20:51:14.027Z,96064.66
2022-12-17T20:53:40.482Z,96061.31
2022-12-17T20:56:11.166Z,96064.00
2022-12-17T20:58:38.559Z,96059.09
2022-12-17T21:01:09.779Z,96067.00
2022-12-17T21:03:36.862Z,96063.31
2022-12-17T21:06:15.438Z,96065.31
2022-12-17T21:08:49.164Z,96052.34
2022-12-17T21:11:20.786Z,96056.16
2022-12-17T21:13:47.296Z,96061.72
2022-12-17T21:16:18.808Z,96059.75
2022-12-17T21:18:46.277Z,96064.66
2022-12-17T21:21:14.605Z,96057.06
2022-12-17T21:23:41.107Z,96063.53
2022-12-17T21:26:10.534Z,96058.28
2022-12-17T21:28:38.140Z,96059.75
2022-12-17T21:31:07.160Z,96064.63
2022-12-17T21:33:33.672Z,96061.16
2022-12-17T21:36:05.884Z,96072.41
2022-12-17T21:38:34.272Z,96069.97
2022-12-17T21:41:08.105Z,96078.44
2022-12-17T21:43:36.839Z,96074.22
2022-12-17T21:46:04.205Z,96078.44
2022-12-17T21:48:32.527Z,96080.00
2022-12-17T21:51:05.615Z,96080.78
2022-12-17T21:53:35.102Z,96077.28
2022-12-17T21:56:24.107Z,96077.28
2022-12-17T21:58:55.201Z,96081.34
2022-12-17T22:01:23.299Z,96089.38
2022-12-17T22:03:53.912Z,96092.38
2022-12-17T22:06:21.934Z,96090.94
2022-12-17T22:08:49.855Z,96079.78
2022-12-17T22:11:24.853Z,96086.38
2022-12-17T22:14:17.005Z,96085.97
2022-12-17T22:16:49.886Z,96088.88
2022-12-17T22:19:22.494Z,96096.47
2022-12-17T22:21:49.937Z,96090.34
2022-12-17T22:24:19.485Z,96097.16
2022-12-17T22:26:47.925Z,96096.47
2022-12-17T22:29:39.615Z,96097.94
2022-12-17T22:32:27.843Z,96102.50
2022-12-17T22:35:37.382Z,96075.88
2022-12-17T22:39:33.072Z,96079.94
2022-12-17T22:44:35.173Z,96091.34
2022-12-17T22:44:45.327Z,96095.47
2022-12-17T22:46:16.625Z,96097.38
2022-12-17T22:48:43.216Z,96098.94
2022-12-17T22:51:10.850Z,96088.22
2022-12-17T22:53:38.590Z,96085.50
2022-12-17T22:56:16.096Z,96081.69
2022-12-17T22:58:52.704Z,96091.53
2022-12-17T23:01:22.912Z,96095.69
2022-12-17T23:03:50.098Z,96091.44
2022-12-17T23:06:19.531Z,96091.44
2022-12-17T23:08:45.990Z,96090.66
2022-12-17T23:11:14.254Z,96087.06
2022-12-17T23:13:41.362Z,96085.47
2022-12-17T23:16:09.758Z,96086.81
2022-12-17T23:18:37.141Z,96098.09
2022-12-17T23:21:10.780Z,96099.31
2022-12-17T23:23:37.838Z,96091.63
2022-12-17T23:26:15.791Z,96097.75
2022-12-17T23:28:42.671Z,96102.25
2022-12-17T23:31:11.952Z,96096.66
2022-12-17T23:33:38.871Z,96093.22
2022-12-17T23:36:09.111Z,96105.06
2022-12-17T23:38:35.732Z,96100.66
2022-12-17T23:41:06.631Z,96101.78
2022-12-17T23:43:33.221Z,96108.59
2022-12-17T23:45:59.938Z,96118.53
2022-12-17T23:48:33.958Z,96114.72
2022-12-17T23:51:01.048Z,96116.41
2022-12-17T23:53:28.321Z,96106.41
2022-12-17T23:55:54.857Z,96113.47
2022-12-17T23:58:22.062Z,96118.72
